sensor_id;sensor_type;location;lat;lon;timestamp;pressure;altitude;pressure_sealevel;temperature;humidity
21359;BME280;13506;50.852;20.632;2023-02-18T00:01:50;97527.34;;;6.73;100.00
21359;BME280;13506;50.852;20.632;2023-02-18T00:04:18;97538.38;;;6.63;100.00
21359;BME280;13506;50.852;20.632;2023-02-18T00:06:46;97511.25;;;6.55;100.00
21359;BME280;13506;50.852;20.632;2023-02-18T00:09:14;97524.25;;;6.42;100.00
21359;BME280;13506;50.852;20.632;2023-02-18T00:11:42;97530.59;;;6.38;100.00
21359;BME280;13506;50.852;20.632;2023-02-18T00:14:14;97537.25;;;6.29;100.00
21359;BME280;13506;50.852;20.632;2023-02-18T00:16:43;97530.19;;;6.31;100.00
21359;BME280;13506;50.852;20.632;2023-02-18T00:19:14;97541.31;;;6.33;100.00
21359;BME280;13506;50.852;20.632;2023-02-18T00:21:43;97544.97;;;6.31;100.00
21359;BME280;13506;50.852;20.632;2023-02-18T00:24:13;97550.88;;;6.33;100.00
21359;BME280;13506;50.852;20.632;2023-02-18T00:26:42;97548.38;;;6.31;100.00
21359;BME280;13506;50.852;20.632;2023-02-18T00:29:12;97553.47;;;6.20;100.00
21359;BME280;13506;50.852;20.632;2023-02-18T00:31:41;97561.38;;;6.31;100.00
21359;BME280;13506;50.852;20.632;2023-02-18T00:34:11;97540.59;;;6.31;100.00
21359;BME280;13506;50.852;20.632;2023-02-18T00:36:40;97545.88;;;6.17;100.00
21359;BME280;13506;50.852;20.632;2023-02-18T00:39:09;97537.38;;;6.27;100.00
21359;BME280;13506;50.852;20.632;2023-02-18T00:41:39;97530.09;;;6.33;100.00
21359;BME280;13506;50.852;20.632;2023-02-18T00:44:08;97523.22;;;6.32;100.00
21359;BME280;13506;50.852;20.632;2023-02-18T00:46:37;97524.19;;;6.31;100.00
21359;BME280;13506;50.852;20.632;2023-02-18T00:49:06;97531.16;;;6.30;100.00
21359;BME280;13506;50.852;20.632;2023-02-18T00:51:35;97536.44;;;6.28;100.00
21359;BME280;13506;50.852;20.632;2023-02-18T00:54:03;97551.19;;;6.28;100.00
21359;BME280;13506;50.852;20.632;2023-02-18T00:56:31;97553.66;;;6.29;100.00
21359;BME280;13506;50.852;20.632;2023-02-18T00:58:59;97562.41;;;6.28;100.00
21359;BME280;13506;50.852;20.632;2023-02-18T01:01:27;97540.91;;;6.26;100.00
21359;BME280;13506;50.852;20.632;2023-02-18T01:03:57;97559.28;;;6.23;100.00
21359;BME280;13506;50.852;20.632;2023-02-18T01:06:25;97545.78;;;6.18;100.00
21359;BME280;13506;50.852;20.632;2023-02-18T01:08:53;97549.34;;;6.17;100.00
21359;BME280;13506;50.852;20.632;2023-02-18T01:11:22;97542.47;;;6.16;100.00
21359;BME280;13506;50.852;20.632;2023-02-18T01:13:51;97546.00;;;6.15;100.00
21359;BME280;13506;50.852;20.632;2023-02-18T01:16:19;97537.25;;;6.16;100.00
21359;BME280;13506;50.852;20.632;2023-02-18T01:18:48;97559.81;;;6.16;100.00
21359;BME280;13506;50.852;20.632;2023-02-18T01:21:17;97552.84;;;6.16;100.00
21359;BME280;13506;50.852;20.632;2023-02-18T01:23:46;97553.06;;;6.13;100.00
21359;BME280;13506;50.852;20.632;2023-02-18T01:26:15;97544.72;;;6.08;100.00
21359;BME280;13506;50.852;20.632;2023-02-18T01:28:44;97562.59;;;6.00;100.00
21359;BME280;13506;50.852;20.632;2023-02-18T01:31:13;97546.41;;;5.96;100.00
21359;BME280;13506;50.852;20.632;2023-02-18T01:33:42;97561.53;;;5.90;100.00
21359;BME280;13506;50.852;20.632;2023-02-18T01:36:10;97562.16;;;5.80;100.00
21359;BME280;13506;50.852;20.632;2023-02-18T01:38:40;97562.25;;;5.79;100.00
21359;BME280;13506;50.852;20.632;2023-02-18T01:41:08;97553.84;;;5.75;100.00
21359;BME280;13506;50.852;20.632;2023-02-18T01:43:37;97562.94;;;5.68;100.00
21359;BME280;13506;50.852;20.632;2023-02-18T01:46:12;97561.28;;;5.67;100.00
21359;BME280;13506;50.852;20.632;2023-02-18T01:48:43;97556.09;;;5.67;100.00
21359;BME280;13506;50.852;20.632;2023-02-18T01:51:16;97567.94;;;5.71;100.00
21359;BME280;13506;50.852;20.632;2023-02-18T01:53:53;97570.31;;;5.74;100.00
21359;BME280;13506;50.852;20.632;2023-02-18T01:56:25;97556.84;;;5.69;100.00
21359;BME280;13506;50.852;20.632;2023-02-18T01:58:57;97552.69;;;5.66;100.00
21359;BME280;13506;50.852;20.632;2023-02-18T02:01:26;97556.84;;;5.69;100.00
21359;BME280;13506;50.852;20.632;2023-02-18T02:03:55;97574.56;;;5.62;100.00
21359;BME280;13506;50.852;20.632;2023-02-18T02:06:24;97559.63;;;5.66;100.00
21359;BME280;13506;50.852;20.632;2023-02-18T02:08:56;97568.72;;;5.59;100.00
21359;BME280;13506;50.852;20.632;2023-02-18T02:12:09;97557.72;;;5.55;100.00
21359;BME280;13506;50.852;20.632;2023-02-18T02:15:12;97583.75;;;5.54;99.78
21359;BME280;13506;50.852;20.632;2023-02-18T02:17:49;97560.53;;;5.52;98.07
21359;BME280;13506;50.852;20.632;2023-02-18T02:24:05;97569.13;;;5.53;95.14
21359;BME280;13506;50.852;20.632;2023-02-18T02:27:05;97577.31;;;5.46;92.96
21359;BME280;13506;50.852;20.632;2023-02-18T02:30:21;97596.66;;;5.41;92.38
21359;BME280;13506;50.852;20.632;2023-02-18T02:33:24;97613.19;;;5.40;92.52
21359;BME280;13506;50.852;20.632;2023-02-18T02:36:01;97615.03;;;5.38;92.11
21359;BME280;13506;50.852;20.632;2023-02-18T02:38:36;97595.69;;;5.29;90.86
21359;BME280;13506;50.852;20.632;2023-02-18T02:41:16;97601.81;;;5.28;92.19
21359;BME280;13506;50.852;20.632;2023-02-18T02:43:58;97594.31;;;5.23;90.03
21359;BME280;13506;50.852;20.632;2023-02-18T02:46:34;97622.94;;;5.22;90.60
21359;BME280;13506;50.852;20.632;2023-02-18T02:49:14;97618.88;;;5.18;89.56
21359;BME280;13506;50.852;20.632;2023-02-18T02:51:51;97619.81;;;5.17;88.80
21359;BME280;13506;50.852;20.632;2023-02-18T02:54:23;97607.94;;;5.13;89.05
21359;BME280;13506;50.852;20.632;2023-02-18T02:57:06;97603.78;;;5.10;88.39
21359;BME280;13506;50.852;20.632;2023-02-18T02:59:38;97612.03;;;5.02;85.59
21359;BME280;13506;50.852;20.632;2023-02-18T03:02:22;97624.47;;;4.97;85.88
21359;BME280;13506;50.852;20.632;2023-02-18T03:05:09;97613.78;;;4.88;83.98
21359;BME280;13506;50.852;20.632;2023-02-18T03:08:11;97629.44;;;4.86;84.36
21359;BME280;13506;50.852;20.632;2023-02-18T03:10:50;97624.50;;;4.81;82.53
21359;BME280;13506;50.852;20.632;2023-02-18T03:13:30;97654.13;;;4.77;82.84
21359;BME280;13506;50.852;20.632;2023-02-18T03:16:08;97586.66;;;4.64;81.57
21359;BME280;13506;50.852;20.632;2023-02-18T03:18:42;97628.84;;;4.66;82.18
21359;BME280;13506;50.852;20.632;2023-02-18T03:21:17;97636.47;;;4.70;80.86
21359;BME280;13506;50.852;20.632;2023-02-18T03:23:55;97629.72;;;4.67;79.89
21359;BME280;13506;50.852;20.632;2023-02-18T03:26:28;97626.28;;;4.66;79.83
21359;BME280;13506;50.852;20.632;2023-02-18T03:29:02;97643.84;;;4.61;78.19
21359;BME280;13506;50.852;20.632;2023-02-18T03:31:34;97642.19;;;4.60;78.20
21359;BME280;13506;50.852;20.632;2023-02-18T03:34:08;97656.44;;;4.53;77.53
21359;BME280;13506;50.852;20.632;2023-02-18T03:36:38;97668.28;;;4.57;78.72
21359;BME280;13506;50.852;20.632;2023-02-18T03:39:10;97675.84;;;4.60;77.96
21359;BME280;13506;50.852;20.632;2023-02-18T03:41:42;97693.16;;;4.60;78.55
21359;BME280;13506;50.852;20.632;2023-02-18T03:44:10;97687.81;;;4.63;78.71
21359;BME280;13506;50.852;20.632;2023-02-18T03:46:41;97697.59;;;4.58;78.21
21359;BME280;13506;50.852;20.632;2023-02-18T03:49:11;97707.13;;;4.57;78.48
21359;BME280;13506;50.852;20.632;2023-02-18T03:51:40;97705.44;;;4.56;78.44
21359;BME280;13506;50.852;20.632;2023-02-18T03:54:10;97710.53;;;4.58;79.09
21359;BME280;13506;50.852;20.632;2023-02-18T03:56:42;97705.38;;;4.58;79.49
21359;BME280;13506;50.852;20.632;2023-02-18T03:59:11;97699.34;;;4.57;79.86
21359;BME280;13506;50.852;20.632;2023-02-18T04:01:39;97708.97;;;4.55;79.06
21359;BME280;13506;50.852;20.632;2023-02-18T04:04:07;97716.06;;;4.52;78.93
21359;BME280;13506;50.852;20.632;2023-02-18T04:06:35;97699.72;;;4.51;80.45
21359;BME280;13506;50.852;20.632;2023-02-18T04:09:04;97712.94;;;4.47;79.88
21359;BME280;13506;50.852;20.632;2023-02-18T04:11:37;97703.66;;;4.42;81.11
21359;BME280;13506;50.852;20.632;2023-02-18T04:14:05;97702.53;;;4.32;82.07
21359;BME280;13506;50.852;20.632;2023-02-18T04:16:34;97724.00;;;4.34;82.03
21359;BME280;13506;50.852;20.632;2023-02-18T04:19:01;97712.72;;;4.35;81.85
21359;BME280;13506;50.852;20.632;2023-02-18T04:21:31;97714.81;;;4.29;81.03
21359;BME280;13506;50.852;20.632;2023-02-18T04:24:00;97725.16;;;4.29;80.76
21359;BME280;13506;50.852;20.632;2023-02-18T04:26:29;97717.31;;;4.30;81.33
21359;BME280;13506;50.852;20.632;2023-02-18T04:28:58;97699.38;;;4.27;81.24
21359;BME280;13506;50.852;20.632;2023-02-18T04:31:27;97715.16;;;4.22;80.57
21359;BME280;13506;50.852;20.632;2023-02-18T04:33:54;97728.69;;;4.28;81.10
21359;BME280;13506;50.852;20.632;2023-02-18T04:36:22;97717.59;;;4.25;81.04
21359;BME280;13506;50.852;20.632;2023-02-18T04:38:51;97730.78;;;4.21;79.89
21359;BME280;13506;50.852;20.632;2023-02-18T04:41:20;97734.63;;;4.14;80.58
21359;BME280;13506;50.852;20.632;2023-02-18T04:43:48;97732.91;;;4.14;81.41
21359;BME280;13506;50.852;20.632;2023-02-18T04:46:19;97731.97;;;4.15;80.52
21359;BME280;13506;50.852;20.632;2023-02-18T04:48:46;97740.75;;;4.13;80.24
21359;BME280;13506;50.852;20.632;2023-02-18T04:51:16;97737.41;;;4.11;80.67
21359;BME280;13506;50.852;20.632;2023-02-18T04:53:44;97741.00;;;4.08;80.67
21359;BME280;13506;50.852;20.632;2023-02-18T04:56:12;97746.19;;;4.08;79.89
21359;BME280;13506;50.852;20.632;2023-02-18T04:58:40;97759.13;;;4.08;80.40
21359;BME280;13506;50.852;20.632;2023-02-18T05:01:09;97716.84;;;4.08;80.16
21359;BME280;13506;50.852;20.632;2023-02-18T05:03:38;97735.06;;;4.06;78.77
21359;BME280;13506;50.852;20.632;2023-02-18T05:06:07;97744.50;;;4.07;78.63
21359;BME280;13506;50.852;20.632;2023-02-18T05:08:34;97751.50;;;4.05;79.26
21359;BME280;13506;50.852;20.632;2023-02-18T05:11:05;97759.28;;;4.05;78.17
21359;BME280;13506;50.852;20.632;2023-02-18T05:13:34;97751.63;;;4.03;79.00
21359;BME280;13506;50.852;20.632;2023-02-18T05:16:02;97743.94;;;4.02;78.94
21359;BME280;13506;50.852;20.632;2023-02-18T05:18:30;97754.28;;;4.02;78.40
21359;BME280;13506;50.852;20.632;2023-02-18T05:21:00;97779.13;;;3.89;78.77
21359;BME280;13506;50.852;20.632;2023-02-18T05:23:28;97781.66;;;3.90;78.20
21359;BME280;13506;50.852;20.632;2023-02-18T05:25:56;97783.84;;;3.98;78.76
21359;BME280;13506;50.852;20.632;2023-02-18T05:28:24;97779.56;;;3.97;77.92
21359;BME280;13506;50.852;20.632;2023-02-18T05:30:52;97778.81;;;3.95;77.46
21359;BME280;13506;50.852;20.632;2023-02-18T05:33:21;97774.72;;;3.91;77.52
21359;BME280;13506;50.852;20.632;2023-02-18T05:35:49;97779.00;;;3.92;77.47
21359;BME280;13506;50.852;20.632;2023-02-18T05:38:19;97782.47;;;3.91;77.51
21359;BME280;13506;50.852;20.632;2023-02-18T05:40:49;97788.41;;;3.93;77.32
21359;BME280;13506;50.852;20.632;2023-02-18T05:43:17;97790.09;;;3.94;77.98
21359;BME280;13506;50.852;20.632;2023-02-18T05:45:45;97800.59;;;3.91;78.07
21359;BME280;13506;50.852;20.632;2023-02-18T05:48:13;97790.84;;;3.96;78.22
21359;BME280;13506;50.852;20.632;2023-02-18T05:50:41;97802.53;;;4.03;78.76
21359;BME280;13506;50.852;20.632;2023-02-18T05:53:09;97807.28;;;4.11;77.71
21359;BME280;13506;50.852;20.632;2023-02-18T05:55:39;97807.59;;;4.36;78.64
21359;BME280;13506;50.852;20.632;2023-02-18T05:58:07;97805.25;;;4.78;76.71
21359;BME280;13506;50.852;20.632;2023-02-18T06:00:36;97796.53;;;4.95;75.37
21359;BME280;13506;50.852;20.632;2023-02-18T06:03:04;97808.97;;;4.88;74.64
21359;BME280;13506;50.852;20.632;2023-02-18T06:05:33;97807.47;;;4.70;74.60
21359;BME280;13506;50.852;20.632;2023-02-18T06:08:01;97814.63;;;4.64;75.95
21359;BME280;13506;50.852;20.632;2023-02-18T06:10:29;97800.81;;;4.50;75.14
21359;BME280;13506;50.852;20.632;2023-02-18T06:12:58;97804.41;;;4.47;75.88
21359;BME280;13506;50.852;20.632;2023-02-18T06:15:27;97791.78;;;4.41;74.57
21359;BME280;13506;50.852;20.632;2023-02-18T06:17:55;97806.44;;;4.42;75.34
21359;BME280;13506;50.852;20.632;2023-02-18T06:20:23;97818.44;;;4.43;75.58
21359;BME280;13506;50.852;20.632;2023-02-18T06:22:51;97819.03;;;4.48;75.18
21359;BME280;13506;50.852;20.632;2023-02-18T06:25:20;97813.41;;;4.56;75.35
21359;BME280;13506;50.852;20.632;2023-02-18T06:27:47;97811.31;;;4.62;75.09
21359;BME280;13506;50.852;20.632;2023-02-18T06:30:17;97805.63;;;4.72;75.29
21359;BME280;13506;50.852;20.632;2023-02-18T06:32:44;97820.06;;;4.76;74.51
21359;BME280;13506;50.852;20.632;2023-02-18T06:35:12;97815.84;;;4.89;72.94
21359;BME280;13506;50.852;20.632;2023-02-18T06:37:40;97817.16;;;5.26;71.63
21359;BME280;13506;50.852;20.632;2023-02-18T06:40:09;97822.78;;;5.91;69.85
21359;BME280;13506;50.852;20.632;2023-02-18T06:42:37;97811.28;;;6.76;69.94
21359;BME280;13506;50.852;20.632;2023-02-18T06:45:05;97805.28;;;8.28;64.19
21359;BME280;13506;50.852;20.632;2023-02-18T06:47:34;97788.84;;;9.67;56.42
21359;BME280;13506;50.852;20.632;2023-02-18T06:50:03;97799.56;;;11.06;50.72
21359;BME280;13506;50.852;20.632;2023-02-18T06:52:32;97790.03;;;12.38;46.18
21359;BME280;13506;50.852;20.632;2023-02-18T06:55:00;97807.91;;;13.59;43.21
21359;BME280;13506;50.852;20.632;2023-02-18T06:57:28;97797.03;;;14.73;41.14
21359;BME280;13506;50.852;20.632;2023-02-18T06:59:56;97797.13;;;15.26;37.73
21359;BME280;13506;50.852;20.632;2023-02-18T07:02:24;97791.75;;;16.38;38.46
21359;BME280;13506;50.852;20.632;2023-02-18T07:04:53;97792.38;;;16.32;36.90
21359;BME280;13506;50.852;20.632;2023-02-18T07:07:21;97798.03;;;15.34;37.06
21359;BME280;13506;50.852;20.632;2023-02-18T07:09:49;97802.91;;;14.49;38.40
21359;BME280;13506;50.852;20.632;2023-02-18T07:12:17;97815.78;;;14.25;39.02
21359;BME280;13506;50.852;20.632;2023-02-18T07:14:45;97805.69;;;15.28;37.94
21359;BME280;13506;50.852;20.632;2023-02-18T07:17:13;97801.00;;;16.00;35.61
21359;BME280;13506;50.852;20.632;2023-02-18T07:19:41;97806.00;;;17.11;34.32
21359;BME280;13506;50.852;20.632;2023-02-18T07:22:10;97806.19;;;17.98;32.04
21359;BME280;13506;50.852;20.632;2023-02-18T07:24:38;97821.91;;;18.94;32.22
21359;BME280;13506;50.852;20.632;2023-02-18T07:27:06;97810.53;;;19.76;30.55
21359;BME280;13506;50.852;20.632;2023-02-18T07:29:34;97827.25;;;20.21;29.80
21359;BME280;13506;50.852;20.632;2023-02-18T07:32:02;97815.97;;;20.70;28.88
21359;BME280;13506;50.852;20.632;2023-02-18T07:34:30;97808.22;;;20.97;27.83
21359;BME280;13506;50.852;20.632;2023-02-18T07:36:58;97809.41;;;21.09;27.70
21359;BME280;13506;50.852;20.632;2023-02-18T07:39:27;97811.81;;;20.82;28.21
21359;BME280;13506;50.852;20.632;2023-02-18T07:41:55;97839.00;;;20.26;28.37
21359;BME280;13506;50.852;20.632;2023-02-18T07:44:24;97828.44;;;19.59;28.78
21359;BME280;13506;50.852;20.632;2023-02-18T07:46:52;97822.34;;;18.74;30.26
21359;BME280;13506;50.852;20.632;2023-02-18T07:49:21;97814.44;;;18.89;29.88
21359;BME280;13506;50.852;20.632;2023-02-18T07:51:49;97842.72;;;18.97;29.49
21359;BME280;13506;50.852;20.632;2023-02-18T07:54:17;97823.69;;;19.69;28.82
21359;BME280;13506;50.852;20.632;2023-02-18T07:56:46;97819.50;;;20.04;29.08
21359;BME280;13506;50.852;20.632;2023-02-18T07:59:14;97811.66;;;19.43;29.42
21359;BME280;13506;50.852;20.632;2023-02-18T08:01:42;97811.88;;;19.19;29.51
21359;BME280;13506;50.852;20.632;2023-02-18T08:04:10;97812.28;;;19.31;29.38
21359;BME280;13506;50.852;20.632;2023-02-18T08:06:40;97825.47;;;19.39;29.38
21359;BME280;13506;50.852;20.632;2023-02-18T08:09:08;97816.69;;;19.76;29.51
21359;BME280;13506;50.852;20.632;2023-02-18T08:11:36;97817.44;;;20.36;28.28
21359;BME280;13506;50.852;20.632;2023-02-18T08:14:06;97817.94;;;19.95;28.68
21359;BME280;13506;50.852;20.632;2023-02-18T08:16:34;97838.72;;;19.24;29.51
21359;BME280;13506;50.852;20.632;2023-02-18T08:19:02;97829.91;;;19.09;29.10
21359;BME280;13506;50.852;20.632;2023-02-18T08:21:31;97827.16;;;19.17;29.62
21359;BME280;13506;50.852;20.632;2023-02-18T08:23:59;97823.25;;;18.90;30.08
21359;BME280;13506;50.852;20.632;2023-02-18T08:26:29;97810.66;;;18.92;29.52
21359;BME280;13506;50.852;20.632;2023-02-18T08:28:57;97819.56;;;19.14;29.44
21359;BME280;13506;50.852;20.632;2023-02-18T08:31:28;97826.22;;;18.86;28.86
21359;BME280;13506;50.852;20.632;2023-02-18T08:33:58;97820.13;;;17.92;29.84
21359;BME280;13506;50.852;20.632;2023-02-18T08:36:27;97826.41;;;17.75;30.60
21359;BME280;13506;50.852;20.632;2023-02-18T08:38:56;97813.91;;;17.44;30.70
21359;BME280;13506;50.852;20.632;2023-02-18T08:41:24;97794.06;;;16.50;31.44
21359;BME280;13506;50.852;20.632;2023-02-18T08:43:52;97822.25;;;15.98;32.06
21359;BME280;13506;50.852;20.632;2023-02-18T08:46:21;97830.28;;;15.28;33.07
21359;BME280;13506;50.852;20.632;2023-02-18T08:48:50;97831.91;;;15.29;33.91
21359;BME280;13506;50.852;20.632;2023-02-18T08:51:20;97835.59;;;15.18;33.94
21359;BME280;13506;50.852;20.632;2023-02-18T08:53:48;97825.69;;;14.94;33.55
21359;BME280;13506;50.852;20.632;2023-02-18T08:56:16;97847.09;;;14.18;34.78
21359;BME280;13506;50.852;20.632;2023-02-18T08:58:44;97838.97;;;13.74;35.49
21359;BME280;13506;50.852;20.632;2023-02-18T09:01:12;97828.56;;;13.15;36.09
21359;BME280;13506;50.852;20.632;2023-02-18T09:03:41;97819.47;;;13.00;36.41
21359;BME280;13506;50.852;20.632;2023-02-18T09:06:10;97811.88;;;12.58;37.22
21359;BME280;13506;50.852;20.632;2023-02-18T09:08:38;97832.44;;;12.53;37.83
21359;BME280;13506;50.852;20.632;2023-02-18T09:11:06;97823.03;;;12.41;37.80
21359;BME280;13506;50.852;20.632;2023-02-18T09:13:36;97841.88;;;12.15;37.96
21359;BME280;13506;50.852;20.632;2023-02-18T09:16:07;97847.56;;;11.59;38.77
21359;BME280;13506;50.852;20.632;2023-02-18T09:18:35;97860.88;;;10.92;39.69
21359;BME280;13506;50.852;20.632;2023-02-18T09:21:05;97874.19;;;10.46;40.90
21359;BME280;13506;50.852;20.632;2023-02-18T09:23:35;97845.97;;;10.06;42.06
21359;BME280;13506;50.852;20.632;2023-02-18T09:26:05;97877.97;;;9.51;42.86
21359;BME280;13506;50.852;20.632;2023-02-18T09:28:34;97879.03;;;9.02;44.27
21359;BME280;13506;50.852;20.632;2023-02-18T09:31:04;97857.69;;;8.73;44.29
21359;BME280;13506;50.852;20.632;2023-02-18T09:33:34;97856.25;;;8.32;45.55
21359;BME280;13506;50.852;20.632;2023-02-18T09:36:04;97866.72;;;8.19;45.90
21359;BME280;13506;50.852;20.632;2023-02-18T09:38:33;97858.75;;;7.84;47.33
21359;BME280;13506;50.852;20.632;2023-02-18T09:41:08;97873.66;;;7.69;46.90
21359;BME280;13506;50.852;20.632;2023-02-18T09:43:44;97870.00;;;7.46;48.04
21359;BME280;13506;50.852;20.632;2023-02-18T09:46:19;97872.78;;;7.17;49.11
21359;BME280;13506;50.852;20.632;2023-02-18T09:48:48;97875.03;;;6.96;49.03
21359;BME280;13506;50.852;20.632;2023-02-18T09:51:17;97877.88;;;6.79;49.82
21359;BME280;13506;50.852;20.632;2023-02-18T09:53:47;97875.78;;;6.57;51.30
21359;BME280;13506;50.852;20.632;2023-02-18T09:56:19;97879.91;;;6.46;51.32
21359;BME280;13506;50.852;20.632;2023-02-18T09:58:50;97871.88;;;6.37;52.33
21359;BME280;13506;50.852;20.632;2023-02-18T10:01:24;97870.03;;;6.24;51.79
21359;BME280;13506;50.852;20.632;2023-02-18T10:03:55;97860.41;;;6.12;52.01
21359;BME280;13506;50.852;20.632;2023-02-18T10:06:28;97865.06;;;6.07;52.48
21359;BME280;13506;50.852;20.632;2023-02-18T10:09:00;97858.69;;;5.98;53.05
21359;BME280;13506;50.852;20.632;2023-02-18T10:11:31;97869.53;;;5.91;54.50
21359;BME280;13506;50.852;20.632;2023-02-18T10:14:01;97868.56;;;5.92;54.30
21359;BME280;13506;50.852;20.632;2023-02-18T10:16:30;97860.63;;;5.80;55.11
21359;BME280;13506;50.852;20.632;2023-02-18T10:19:00;97854.78;;;5.91;54.19
21359;BME280;13506;50.852;20.632;2023-02-18T10:21:33;97864.13;;;5.94;55.08
21359;BME280;13506;50.852;20.632;2023-02-18T10:24:09;97870.25;;;5.93;54.01
21359;BME280;13506;50.852;20.632;2023-02-18T10:26:41;97862.56;;;5.91;54.43
21359;BME280;13506;50.852;20.632;2023-02-18T10:29:15;97850.59;;;5.88;54.16
21359;BME280;13506;50.852;20.632;2023-02-18T10:31:46;97861.72;;;5.91;54.19
21359;BME280;13506;50.852;20.632;2023-02-18T10:34:23;97841.03;;;5.89;54.19
21359;BME280;13506;50.852;20.632;2023-02-18T10:36:56;97850.22;;;5.80;55.37
21359;BME280;13506;50.852;20.632;2023-02-18T10:39:45;97850.69;;;5.87;54.07
21359;BME280;13506;50.852;20.632;2023-02-18T10:42:26;97842.63;;;5.92;54.53
21359;BME280;13506;50.852;20.632;2023-02-18T10:45:05;97846.53;;;5.99;54.75
21359;BME280;13506;50.852;20.632;2023-02-18T10:47:39;97838.97;;;6.08;53.72
21359;BME280;13506;50.852;20.632;2023-02-18T10:50:12;97828.41;;;6.12;53.65
21359;BME280;13506;50.852;20.632;2023-02-18T10:52:46;97826.47;;;6.15;53.30
21359;BME280;13506;50.852;20.632;2023-02-18T10:55:17;97819.78;;;6.11;54.39
21359;BME280;13506;50.852;20.632;2023-02-18T10:57:49;97809.41;;;6.11;54.06
21359;BME280;13506;50.852;20.632;2023-02-18T11:00:20;97816.09;;;6.15;54.12
21359;BME280;13506;50.852;20.632;2023-02-18T11:03:03;97818.75;;;6.14;54.42
21359;BME280;13506;50.852;20.632;2023-02-18T11:05:38;97814.41;;;6.14;53.72
21359;BME280;13506;50.852;20.632;2023-02-18T11:08:08;97822.19;;;6.14;53.49
21359;BME280;13506;50.852;20.632;2023-02-18T11:10:42;97798.06;;;6.12;53.31
21359;BME280;13506;50.852;20.632;2023-02-18T11:13:13;97795.47;;;6.12;54.50
21359;BME280;13506;50.852;20.632;2023-02-18T11:15:56;97797.59;;;6.20;54.23
21359;BME280;13506;50.852;20.632;2023-02-18T11:18:35;97803.97;;;6.28;54.37
21359;BME280;13506;50.852;20.632;2023-02-18T11:21:19;97792.91;;;6.39;53.96
21359;BME280;13506;50.852;20.632;2023-02-18T11:23:50;97780.09;;;6.36;52.78
21359;BME280;13506;50.852;20.632;2023-02-18T11:26:26;97787.00;;;6.50;51.90
21359;BME280;13506;50.852;20.632;2023-02-18T11:28:59;97781.94;;;6.61;51.86
21359;BME280;13506;50.852;20.632;2023-02-18T11:31:40;97777.47;;;6.63;52.14
21359;BME280;13506;50.852;20.632;2023-02-18T11:34:15;97769.66;;;6.63;51.23
21359;BME280;13506;50.852;20.632;2023-02-18T11:36:45;97783.53;;;6.64;50.69
21359;BME280;13506;50.852;20.632;2023-02-18T11:39:19;97795.13;;;6.85;50.48
21359;BME280;13506;50.852;20.632;2023-02-18T11:41:54;97783.47;;;6.91;50.35
21359;BME280;13506;50.852;20.632;2023-02-18T11:44:28;97788.28;;;6.97;49.96
21359;BME280;13506;50.852;20.632;2023-02-18T11:47:01;97783.63;;;7.02;49.32
21359;BME280;13506;50.852;20.632;2023-02-18T11:49:31;97768.19;;;6.99;49.22
21359;BME280;13506;50.852;20.632;2023-02-18T11:52:13;97758.44;;;6.90;48.58
21359;BME280;13506;50.852;20.632;2023-02-18T11:54:42;97758.94;;;6.95;48.40
21359;BME280;13506;50.852;20.632;2023-02-18T11:57:27;97755.00;;;7.02;48.87
21359;BME280;13506;50.852;20.632;2023-02-18T11:59:56;97749.16;;;6.99;48.05
21359;BME280;13506;50.852;20.632;2023-02-18T12:02:31;97745.22;;;7.06;48.03
21359;BME280;13506;50.852;20.632;2023-02-18T12:05:03;97739.00;;;7.08;47.61
21359;BME280;13506;50.852;20.632;2023-02-18T12:07:41;97716.31;;;6.98;48.10
21359;BME280;13506;50.852;20.632;2023-02-18T12:10:17;97739.28;;;7.17;48.15
21359;BME280;13506;50.852;20.632;2023-02-18T12:12:53;97723.38;;;7.21;47.44
21359;BME280;13506;50.852;20.632;2023-02-18T12:15:38;97724.41;;;7.19;47.79
21359;BME280;13506;50.852;20.632;2023-02-18T12:21:34;97719.91;;;7.21;47.07
21359;BME280;13506;50.852;20.632;2023-02-18T12:24:16;97716.81;;;7.16;48.25
21359;BME280;13506;50.852;20.632;2023-02-18T12:26:54;97704.22;;;7.09;47.69
21359;BME280;13506;50.852;20.632;2023-02-18T12:29:42;97702.16;;;7.15;47.49
21359;BME280;13506;50.852;20.632;2023-02-18T12:32:30;97684.78;;;7.15;47.55
21359;BME280;13506;50.852;20.632;2023-02-18T12:35:21;97686.25;;;7.06;48.01
21359;BME280;13506;50.852;20.632;2023-02-18T12:38:05;97681.97;;;7.05;47.67
21359;BME280;13506;50.852;20.632;2023-02-18T12:41:08;97690.41;;;6.96;48.37
21359;BME280;13506;50.852;20.632;2023-02-18T12:43:50;97679.78;;;6.99;47.78
21359;BME280;13506;50.852;20.632;2023-02-18T12:46:55;97677.81;;;7.03;48.23
21359;BME280;13506;50.852;20.632;2023-02-18T12:49:43;97666.16;;;7.08;47.99
21359;BME280;13506;50.852;20.632;2023-02-18T12:52:25;97660.00;;;7.09;48.01
21359;BME280;13506;50.852;20.632;2023-02-18T12:55:20;97660.31;;;7.18;48.51
21359;BME280;13506;50.852;20.632;2023-02-18T12:57:58;97650.00;;;7.16;48.59
21359;BME280;13506;50.852;20.632;2023-02-18T13:00:59;97656.19;;;7.02;48.70
21359;BME280;13506;50.852;20.632;2023-02-18T13:06:51;97654.53;;;6.88;48.61
21359;BME280;13506;50.852;20.632;2023-02-18T13:09:35;97661.16;;;7.05;48.40
21359;BME280;13506;50.852;20.632;2023-02-18T13:12:11;97648.78;;;7.09;48.83
21359;BME280;13506;50.852;20.632;2023-02-18T13:14:49;97655.75;;;7.08;49.47
21359;BME280;13506;50.852;20.632;2023-02-18T13:17:24;97649.09;;;7.04;49.31
21359;BME280;13506;50.852;20.632;2023-02-18T13:20:00;97638.28;;;7.11;49.59
21359;BME280;13506;50.852;20.632;2023-02-18T13:22:29;97669.28;;;7.14;50.89
21359;BME280;13506;50.852;20.632;2023-02-18T13:24:58;97647.53;;;7.02;52.80
21359;BME280;13506;50.852;20.632;2023-02-18T13:27:32;97665.63;;;6.78;55.02
21359;BME280;13506;50.852;20.632;2023-02-18T13:30:18;97650.75;;;6.54;55.76
21359;BME280;13506;50.852;20.632;2023-02-18T13:33:04;97632.66;;;6.53;57.62
21359;BME280;13506;50.852;20.632;2023-02-18T13:35:41;97647.31;;;6.41;61.30